Time;durP1;ratioP1;P1;durP2;ratioP2;P2;SDS_P1;SDS_P2;PMS_P1;PMS_P2;Temp;Humidity;BMP_temperature;BMP_pressure;BME280_temperature;BME280_humidity;BME280_pressure;Samples;Min_cycle;Max_cycle;Signal;HPM_P1;HPM_P2
2022/09/15 00:02:18;;;;;;;3.10;2.55;;;;;;;-145.06;100.00;60892.56;5969402;23;20328;-92
2022/09/15 00:04:56;;;;;;;2.93;2.40;;;;;;;-145.06;100.00;60892.56;5970623;23;20008;-92
2022/09/15 00:07:35;;;;;;;3.40;2.95;;;;;;;-145.06;100.00;60892.56;5970180;23;20239;-90
2022/09/15 00:10:14;;;;;;;4.00;2.60;;;;;;;-145.06;100.00;60892.56;5968413;23;20440;-91
2022/09/15 00:12:54;;;;;;;2.80;2.38;;;;;;;-145.06;100.00;60892.56;5969970;23;20248;-93
2022/09/15 00:15:34;;;;;;;5.38;2.92;;;;;;;-145.06;100.00;60892.56;5970075;23;20008;-92
2022/09/15 00:18:13;;;;;;;4.53;2.67;;;;;;;-145.06;100.00;60892.56;5969474;23;20012;-92
2022/09/15 00:20:52;;;;;;;3.30;2.78;;;;;;;-145.06;100.00;60892.56;5970318;23;20312;-92
2022/09/15 00:23:31;;;;;;;4.97;2.90;;;;;;;-145.06;100.00;60892.56;5970831;23;20391;-91
2022/09/15 00:26:13;;;;;;;3.22;2.80;;;;;;;-145.06;100.00;60892.56;5968968;23;20243;-90
2022/09/15 00:28:53;;;;;;;3.67;3.00;;;;;;;-145.06;100.00;60892.56;5969620;23;20462;-89
2022/09/15 00:31:32;;;;;;;2.95;2.50;;;;;;;-145.06;100.00;60892.56;5969573;23;20016;-90
2022/09/15 00:34:12;;;;;;;3.60;2.78;;;;;;;-145.06;100.00;60892.56;5969636;23;20391;-91
2022/09/15 00:36:52;;;;;;;3.40;2.60;;;;;;;-145.06;100.00;60892.56;5969918;23;20012;-90
2022/09/15 00:39:31;;;;;;;3.60;2.80;;;;;;;-145.06;100.00;60892.56;5969611;23;20036;-92
2022/09/15 00:42:18;;;;;;;3.10;2.70;;;;;;;-145.06;100.00;60892.56;5969695;23;20240;-91
2022/09/15 00:45:01;;;;;;;2.92;2.63;;;;;;;-145.06;100.00;60892.56;5969830;23;20008;-92
2022/09/15 00:47:40;;;;;;;3.97;2.42;;;;;;;-145.06;100.00;60892.56;6002017;23;20008;-91
2022/09/15 00:50:20;;;;;;;3.70;2.90;;;;;;;-145.06;100.00;60892.56;5969566;23;20012;-91
2022/09/15 00:53:03;;;;;;;3.15;2.40;;;;;;;-145.06;100.00;60892.56;5969244;23;20009;-90
2022/09/15 00:55:48;;;;;;;2.97;2.30;;;;;;;-145.06;100.00;60892.56;5969143;23;20016;-90
2022/09/15 00:58:32;;;;;;;3.25;2.47;;;;;;;-145.06;100.00;60892.56;5969673;23;20008;-92
2022/09/15 01:01:13;;;;;;;3.67;2.38;;;;;;;-145.06;100.00;60892.56;5969379;23;20009;-91
2022/09/15 01:03:54;;;;;;;2.85;2.35;;;;;;;-145.06;100.00;60892.56;5970023;23;20478;-89
2022/09/15 01:06:36;;;;;;;3.45;2.55;;;;;;;-145.06;100.00;60892.56;5970090;23;20012;-90
2022/09/15 01:09:48;;;;;;;4.30;2.75;;;;;;;-145.06;100.00;60892.56;5969220;23;20012;-91
2022/09/15 01:12:27;;;;;;;3.40;2.65;;;;;;;-145.06;100.00;60892.56;5960712;23;20008;-91
2022/09/15 01:15:07;;;;;;;3.27;2.30;;;;;;;-145.06;100.00;60892.56;5969119;23;20013;-92
2022/09/15 01:17:57;;;;;;;2.85;2.47;;;;;;;-145.06;100.00;60892.56;5970160;23;20840;-90
2022/09/15 01:20:54;;;;;;;2.78;2.50;;;;;;;-145.06;100.00;60892.56;5969344;23;20088;-91
2022/09/15 01:23:44;;;;;;;2.92;2.40;;;;;;;-145.06;100.00;60892.56;5970026;23;20000;-91
2022/09/15 01:26:38;;;;;;;2.97;2.28;;;;;;;-145.06;100.00;60892.56;5969513;23;20016;-91
2022/09/15 01:29:20;;;;;;;2.53;2.17;;;;;;;-145.06;100.00;60892.56;5968736;23;20005;-91
2022/09/15 01:35:13;;;;;;;5.35;2.22;;;;;;;-145.06;100.00;60892.56;6001247;23;20107;-91
2022/09/15 01:38:01;;;;;;;2.30;2.10;;;;;;;-145.06;100.00;60892.56;5969218;23;20008;-91
2022/09/15 01:40:47;;;;;;;2.58;2.20;;;;;;;-145.06;100.00;60892.56;6000550;23;20012;-92
2022/09/15 01:43:29;;;;;;;3.40;2.13;;;;;;;-145.06;100.00;60892.56;5968014;23;20330;-90
2022/09/15 01:46:10;;;;;;;2.55;2.35;;;;;;;-145.06;100.00;60892.56;5968997;23;20040;-90
2022/09/15 01:48:53;;;;;;;2.30;2.08;;;;;;;-145.06;100.00;60892.56;5968972;23;20008;-91
2022/09/15 01:51:33;;;;;;;3.05;2.53;;;;;;;-145.06;100.00;60892.56;6000726;23;20013;-91
2022/09/15 01:54:15;;;;;;;3.30;2.53;;;;;;;-145.06;100.00;60892.56;5968438;23;20091;-91
2022/09/15 01:56:56;;;;;;;3.80;3.13;;;;;;;-145.06;100.00;60892.56;5968480;23;20009;-92
2022/09/15 01:59:35;;;;;;;3.17;2.58;;;;;;;-145.06;100.00;60892.56;5968365;23;20008;-90
2022/09/15 02:02:32;;;;;;;3.20;2.50;;;;;;;-145.06;100.00;60892.56;5968279;23;20012;-90
2022/09/15 02:05:24;;;;;;;3.78;2.60;;;;;;;-145.06;100.00;60892.56;5967837;23;20243;-91
2022/09/15 02:08:11;;;;;;;3.28;2.33;;;;;;;-145.06;100.00;60892.56;5968321;23;20008;-91
2022/09/15 02:11:10;;;;;;;2.90;2.50;;;;;;;-145.06;100.00;60892.56;6001045;23;20024;-91
2022/09/15 02:14:25;;;;;;;3.25;2.65;;;;;;;-145.06;100.00;60892.56;5967846;23;20005;-90
2022/09/15 02:17:04;;;;;;;3.30;2.30;;;;;;;-145.06;100.00;60892.56;5968529;23;20008;-90
2022/09/15 02:19:51;;;;;;;3.83;2.75;;;;;;;-145.06;100.00;60892.56;5967856;23;20012;-90
2022/09/15 02:22:34;;;;;;;3.30;3.00;;;;;;;-145.06;100.00;60892.56;5968649;23;20008;-91
2022/09/15 02:25:18;;;;;;;3.47;2.83;;;;;;;-145.06;100.00;60892.56;5968414;23;20036;-92
2022/09/15 02:28:05;;;;;;;3.45;2.90;;;;;;;-145.06;100.00;60892.56;6001329;23;20008;-90
2022/09/15 02:30:47;;;;;;;3.45;2.83;;;;;;;-145.06;100.00;60892.56;5968799;23;20447;-90
2022/09/15 02:33:31;;;;;;;4.45;2.90;;;;;;;-145.06;100.00;60892.56;5968378;23;20099;-90
2022/09/15 02:36:13;;;;;;;4.90;3.58;;;;;;;-145.06;100.00;60892.56;5968926;23;20013;-91
2022/09/15 02:38:57;;;;;;;3.05;2.63;;;;;;;-145.06;100.00;60892.56;5968253;23;20009;-90
2022/09/15 02:41:37;;;;;;;4.72;3.67;;;;;;;-145.06;100.00;60892.56;5968609;23;20009;-91
2022/09/15 02:44:16;;;;;;;4.07;3.28;;;;;;;-145.06;100.00;60892.56;5968233;23;20008;-91
2022/09/15 02:47:00;;;;;;;3.50;2.83;;;;;;;-145.06;100.00;60892.56;5968196;23;20040;-91
2022/09/15 02:49:39;;;;;;;4.40;3.45;;;;;;;-145.06;100.00;60892.56;5968368;23;20236;-91
2022/09/15 02:52:19;;;;;;;3.67;3.27;;;;;;;-145.06;100.00;60892.56;5968523;23;20111;-90
2022/09/15 02:54:59;;;;;;;4.15;3.40;;;;;;;-145.06;100.00;60892.56;5968424;23;20326;-91
2022/09/15 02:57:38;;;;;;;4.65;3.65;;;;;;;-145.06;100.00;60892.56;5969032;23;20091;-91
2022/09/15 03:00:18;;;;;;;4.72;3.80;;;;;;;-145.06;100.00;60892.56;5968400;23;20012;-91
2022/09/15 03:02:57;;;;;;;5.60;4.00;;;;;;;-145.06;100.00;60892.56;5968084;23;20001;-92
2022/09/15 03:05:36;;;;;;;3.35;3.05;;;;;;;-145.06;100.00;60892.56;5968925;23;20009;-91
2022/09/15 03:08:15;;;;;;;5.15;3.80;;;;;;;-145.06;100.00;60892.56;5968722;23;20009;-91
2022/09/15 03:10:56;;;;;;;5.20;3.97;;;;;;;-145.06;100.00;60892.56;5968142;23;20008;-91
2022/09/15 03:13:35;;;;;;;5.25;4.03;;;;;;;-145.06;100.00;60892.56;5967130;23;20248;-92
2022/09/15 03:16:15;;;;;;;6.30;4.43;;;;;;;-145.06;100.00;60892.56;5967031;23;20286;-90
2022/09/15 03:18:55;;;;;;;5.50;4.18;;;;;;;-145.06;100.00;60892.56;5968122;23;20443;-91
2022/09/15 03:21:36;;;;;;;6.18;4.68;;;;;;;-145.06;100.00;60892.56;5943279;23;20028;-91
2022/09/15 03:24:15;;;;;;;5.78;4.50;;;;;;;-145.06;100.00;60892.56;5968847;23;20004;-90
2022/09/15 03:26:53;;;;;;;6.87;4.83;;;;;;;-145.06;100.00;60892.56;5968339;23;20008;-91
2022/09/15 03:29:32;;;;;;;5.90;4.47;;;;;;;-145.06;100.00;60892.56;5967608;23;20099;-91
2022/09/15 03:32:11;;;;;;;5.72;4.28;;;;;;;-145.06;100.00;60892.56;5968602;23;20264;-91
2022/09/15 03:34:50;;;;;;;5.47;4.03;;;;;;;-145.06;100.00;60892.56;6001668;23;20095;-91
2022/09/15 03:37:29;;;;;;;5.70;3.90;;;;;;;-145.06;100.00;60892.56;5969004;23;20008;-91
2022/09/15 03:40:09;;;;;;;7.40;4.50;;;;;;;-145.06;100.00;60892.56;5970261;23;20012;-90
2022/09/15 03:42:48;;;;;;;5.05;4.15;;;;;;;-145.06;100.00;60892.56;5969610;23;20236;-91
2022/09/15 03:45:27;;;;;;;5.25;4.03;;;;;;;-145.06;100.00;60892.56;6001580;23;20012;-90
2022/09/15 03:48:06;;;;;;;6.13;4.70;;;;;;;-145.06;100.00;60892.56;5969695;23;20289;-90
2022/09/15 03:50:45;;;;;;;7.13;4.55;;;;;;;-145.06;100.00;60892.56;5969087;23;20008;-90
2022/09/15 03:53:24;;;;;;;6.93;4.67;;;;;;;-145.06;100.00;60892.56;5969683;23;20008;-91
2022/09/15 03:56:22;;;;;;;6.53;4.88;;;;;;;-145.06;100.00;60892.56;5970022;23;20150;-89
2022/09/15 04:02:38;;;;;;;6.25;4.70;;;;;;;-145.06;100.00;60892.56;6007675;23;20004;-92
2022/09/15 04:05:17;;;;;;;5.25;4.35;;;;;;;-145.06;100.00;60892.56;5975924;23;20009;-92
2022/09/15 04:07:56;;;;;;;5.63;4.20;;;;;;;-145.06;100.00;60892.56;5976015;23;20028;-92
2022/09/15 04:10:44;;;;;;;5.57;4.33;;;;;;;-145.06;100.00;60892.56;5975717;23;20287;-92
2022/09/15 04:13:23;;;;;;;6.43;4.72;;;;;;;-145.06;100.00;60892.56;5975913;23;20005;-91
2022/09/15 04:16:09;;;;;;;5.50;4.30;;;;;;;-145.06;100.00;60892.56;5974069;23;20040;-92
2022/09/15 04:18:49;;;;;;;4.75;4.18;;;;;;;-145.06;100.00;60892.56;5974702;23;20004;-92
2022/09/15 04:21:35;;;;;;;5.07;4.18;;;;;;;-145.06;100.00;60892.56;5974750;23;20009;-92
2022/09/15 04:24:15;;;;;;;5.63;3.83;;;;;;;-145.06;100.00;60892.56;5972456;23;20005;-91
2022/09/15 04:26:55;;;;;;;6.15;4.55;;;;;;;-145.06;100.00;60892.56;5973415;23;20387;-92
2022/09/15 04:29:34;;;;;;;5.60;4.32;;;;;;;-145.06;100.00;60892.56;5972575;23;20013;-91
2022/09/15 04:32:13;;;;;;;8.15;5.68;;;;;;;-145.06;100.00;60892.56;5974024;23;20005;-90
2022/09/15 04:34:52;;;;;;;7.22;5.10;;;;;;;-145.06;100.00;60892.56;5976084;23;20012;-90
2022/09/15 04:37:31;;;;;;;6.20;4.55;;;;;;;-145.06;100.00;60892.56;5975799;23;20005;-91
2022/09/15 04:40:10;;;;;;;7.10;5.22;;;;;;;-145.06;100.00;60892.56;5976270;23;20000;-91
2022/09/15 04:42:49;;;;;;;5.83;4.60;;;;;;;-145.06;100.00;60892.56;5974447;23;20029;-90
2022/09/15 04:45:28;;;;;;;5.77;4.00;;;;;;;-145.06;100.00;60892.56;5975460;23;20261;-91
2022/09/15 04:48:07;;;;;;;5.88;4.38;;;;;;;-145.06;100.00;60892.56;5975036;23;20158;-91
2022/09/15 04:50:47;;;;;;;6.68;4.50;;;;;;;-145.06;100.00;60892.56;5974960;23;20040;-90
2022/09/15 04:53:26;;;;;;;4.72;3.45;;;;;;;-145.06;100.00;60892.56;5974887;23;20009;-91
2022/09/15 04:56:10;;;;;;;4.90;3.80;;;;;;;-145.06;100.00;60892.56;5974986;23;20431;-90
2022/09/15 04:58:55;;;;;;;5.40;3.85;;;;;;;-145.06;100.00;60892.56;5974470;23;20008;-90
2022/09/15 05:01:34;;;;;;;5.53;3.90;;;;;;;-145.06;100.00;60892.56;5975517;23;20004;-91
2022/09/15 05:04:16;;;;;;;4.90;3.75;;;;;;;-145.06;100.00;60892.56;5971842;23;20080;-89
2022/09/15 05:06:55;;;;;;;5.38;3.95;;;;;;;-145.06;100.00;60892.56;5974133;23;20047;-91
2022/09/15 05:09:34;;;;;;;5.70;4.10;;;;;;;-145.06;100.00;60892.56;5972822;23;20012;-91
2022/09/15 05:12:13;;;;;;;5.45;4.05;;;;;;;-145.06;100.00;60892.56;5973068;23;20004;-91
2022/09/15 05:14:52;;;;;;;6.32;4.03;;;;;;;-145.06;100.00;60892.56;5972525;23;20013;-91
2022/09/15 05:17:32;;;;;;;6.90;4.40;;;;;;;-145.06;100.00;60892.56;5973259;23;20012;-91
2022/09/15 05:20:11;;;;;;;6.35;4.20;;;;;;;-145.06;100.00;60892.56;5975392;23;20428;-93
2022/09/15 05:22:50;;;;;;;5.85;3.88;;;;;;;-145.06;100.00;60892.56;5974191;23;20317;-93
2022/09/15 05:25:29;;;;;;;3.53;2.53;;;;;;;-145.06;100.00;60892.56;5974433;23;20012;-92
2022/09/15 05:28:08;;;;;;;5.85;3.78;;;;;;;-145.06;100.00;60892.56;5974155;23;20004;-92
2022/09/15 05:30:47;;;;;;;5.77;3.83;;;;;;;-145.06;100.00;60892.56;5974652;23;20470;-91
2022/09/15 05:33:26;;;;;;;6.43;4.23;;;;;;;-145.06;100.00;60892.56;5973945;23;20004;-90
2022/09/15 05:36:06;;;;;;;5.67;4.07;;;;;;;-145.06;100.00;60892.56;5975847;23;20259;-92
2022/09/15 05:38:45;;;;;;;7.50;4.55;;;;;;;-145.06;100.00;60892.56;5976151;23;20004;-92
2022/09/15 05:41:25;;;;;;;5.40;4.15;;;;;;;-145.06;100.00;60892.56;5976000;23;20431;-91
2022/09/15 05:44:04;;;;;;;5.53;4.03;;;;;;;-145.06;100.00;60892.56;5976409;23;20004;-91
2022/09/15 05:46:43;;;;;;;6.05;4.50;;;;;;;-145.06;100.00;60892.56;5975998;23;20004;-91
2022/09/15 05:49:22;;;;;;;5.57;4.17;;;;;;;-145.06;100.00;60892.56;5976440;23;20004;-91
2022/09/15 05:52:03;;;;;;;6.22;4.30;;;;;;;-145.06;100.00;60892.56;5975672;23;20079;-91
2022/09/15 05:54:42;;;;;;;6.57;4.38;;;;;;;-145.06;100.00;60892.56;5975588;23;20005;-91
2022/09/15 05:57:21;;;;;;;5.23;3.40;;;;;;;-145.06;100.00;60892.56;5975864;23;20009;-91
2022/09/15 06:00:00;;;;;;;5.25;3.65;;;;;;;-145.06;100.00;60892.56;5975565;23;20232;-92
2022/09/15 06:02:39;;;;;;;5.60;4.05;;;;;;;-145.06;100.00;60892.56;5975957;23;20036;-92
2022/09/15 06:05:19;;;;;;;5.20;3.25;;;;;;;-145.06;100.00;60892.56;5976054;23;20016;-93
2022/09/15 06:07:58;;;;;;;3.90;2.90;;;;;;;-145.06;100.00;60892.56;5975785;23;20008;-91
2022/09/15 06:10:37;;;;;;;4.57;3.03;;;;;;;-145.06;100.00;60892.56;5975817;23;20004;-91
2022/09/15 06:13:16;;;;;;;3.97;2.90;;;;;;;-145.06;100.00;60892.56;5975823;23;20036;-91
2022/09/15 06:16:09;;;;;;;4.10;2.73;;;;;;;-145.06;100.00;60892.56;5975673;23;20004;-89
2022/09/15 06:18:49;;;;;;;3.92;2.65;;;;;;;-145.06;100.00;60892.56;5976219;23;20001;-91
2022/09/15 06:21:30;;;;;;;3.20;2.63;;;;;;;-145.06;100.00;60892.56;5975795;23;20004;-94
2022/09/15 06:24:11;;;;;;;4.22;3.10;;;;;;;-145.06;100.00;60892.56;5975827;23;20000;-92
2022/09/15 06:26:50;;;;;;;4.78;3.40;;;;;;;-145.06;100.00;60892.56;5975884;23;20009;-91
2022/09/15 06:29:30;;;;;;;5.13;3.27;;;;;;;-145.06;100.00;60892.56;5975433;23;20009;-93
2022/09/15 06:32:09;;;;;;;4.90;3.45;;;;;;;-145.06;100.00;60892.56;5975952;23;20008;-92
2022/09/15 06:34:48;;;;;;;5.03;3.50;;;;;;;-145.06;100.00;60892.56;5975412;23;20032;-91
2022/09/15 06:37:28;;;;;;;6.00;2.85;;;;;;;-145.06;100.00;60892.56;5975579;23;20009;-92
2022/09/15 06:40:07;;;;;;;5.93;3.22;;;;;;;-145.06;100.00;60892.56;5975649;23;20309;-92
2022/09/15 06:42:46;;;;;;;4.57;3.00;;;;;;;-145.06;100.00;60892.56;5975556;23;20071;-94
2022/09/15 06:45:25;;;;;;;4.90;3.40;;;;;;;-145.06;100.00;60892.56;5975400;23;20083;-92
2022/09/15 06:48:04;;;;;;;4.75;3.22;;;;;;;-145.06;100.00;60892.56;5975622;23;20600;-91
2022/09/15 06:50:43;;;;;;;3.93;2.70;;;;;;;-145.06;100.00;60892.56;5975045;23;20423;-93
2022/09/15 06:53:23;;;;;;;4.65;2.70;;;;;;;-145.06;100.00;60892.56;5975690;23;20008;-92
2022/09/15 06:56:07;;;;;;;6.05;2.88;;;;;;;-145.06;100.00;60892.56;5975650;23;20012;-91
2022/09/15 06:58:50;;;;;;;3.78;2.80;;;;;;;-145.06;100.00;60892.56;5975183;23;20009;-91
2022/09/15 07:01:30;;;;;;;3.25;2.42;;;;;;;-145.06;100.00;60892.56;5975355;23;20004;-92
2022/09/15 07:04:10;;;;;;;2.72;1.88;;;;;;;-145.06;100.00;60892.56;5975854;23;20001;-92
2022/09/15 07:06:49;;;;;;;4.35;2.45;;;;;;;-145.06;100.00;60892.56;5977325;23;20008;-92
2022/09/15 07:09:28;;;;;;;2.75;2.10;;;;;;;-145.06;100.00;60892.56;5978720;23;20008;-92
2022/09/15 07:12:07;;;;;;;3.83;2.25;;;;;;;-145.06;100.00;60892.56;5978230;23;20415;-92
2022/09/15 07:14:46;;;;;;;2.97;2.20;;;;;;;-145.06;100.00;60892.56;5978258;23;20004;-91
2022/09/15 07:17:26;;;;;;;3.97;2.60;;;;;;;-145.06;100.00;60892.56;5978613;23;20548;-91
2022/09/15 07:20:05;;;;;;;4.00;2.55;;;;;;;-145.06;100.00;60892.56;5978087;23;20372;-92
2022/09/15 07:22:44;;;;;;;4.85;2.00;;;;;;;-145.06;100.00;60892.56;5978375;23;20004;-91
2022/09/15 07:25:23;;;;;;;3.40;2.30;;;;;;;-145.06;100.00;60892.56;5978489;23;20004;-92
2022/09/15 07:28:02;;;;;;;3.28;2.17;;;;;;;-145.06;100.00;60892.56;5978124;23;20004;-92
2022/09/15 07:30:42;;;;;;;3.20;2.35;;;;;;;-145.06;100.00;60892.56;5979132;23;20004;-91
2022/09/15 07:33:21;;;;;;;3.08;2.60;;;;;;;-145.06;100.00;60892.56;5977595;23;20312;-91
2022/09/15 07:36:05;;;;;;;3.70;2.70;;;;;;;-145.06;100.00;60892.56;5978624;23;20004;-92
2022/09/15 07:38:47;;;;;;;4.78;2.95;;;;;;;-145.06;100.00;60892.56;5978416;23;20259;-91
2022/09/15 07:41:28;;;;;;;3.63;2.58;;;;;;;-145.06;100.00;60892.56;5977973;23;20008;-92
2022/09/15 07:44:10;;;;;;;4.05;2.53;;;;;;;-145.06;100.00;60892.56;5978269;23;20000;-92
2022/09/15 07:46:49;;;;;;;3.28;2.42;;;;;;;-145.06;100.00;60892.56;5977979;23;20220;-93
2022/09/15 07:49:29;;;;;;;3.60;2.55;;;;;;;-145.06;100.00;60892.56;5978366;23;20012;-92
2022/09/15 07:52:09;;;;;;;3.63;2.25;;;;;;;-145.06;100.00;60892.56;5978231;23;20436;-92
2022/09/15 07:54:47;;;;;;;2.43;2.07;;;;;;;-145.06;100.00;60892.56;5978170;23;20146;-92
2022/09/15 07:57:27;;;;;;;3.25;2.42;;;;;;;-145.06;100.00;60892.56;5978625;23;20320;-92
2022/09/15 08:00:06;;;;;;;3.60;2.33;;;;;;;-145.06;100.00;60892.56;5978310;23;20004;-92
2022/09/15 08:02:45;;;;;;;3.95;2.92;;;;;;;-145.06;100.00;60892.56;5978122;23;20008;-93
2022/09/15 08:05:26;;;;;;;4.97;3.07;;;;;;;-145.06;100.00;60892.56;5978247;23;20528;-92
2022/09/15 08:08:06;;;;;;;3.78;2.83;;;;;;;-145.06;100.00;60892.56;5977870;23;20004;-92
2022/09/15 08:10:45;;;;;;;3.78;2.88;;;;;;;-145.06;100.00;60892.56;5978301;23;20005;-91
2022/09/15 08:13:24;;;;;;;4.90;2.90;;;;;;;-145.06;100.00;60892.56;5978320;23;20004;-92
2022/09/15 08:16:05;;;;;;;3.60;3.07;;;;;;;-145.06;100.00;60892.56;5978750;23;20231;-93
2022/09/15 08:18:48;;;;;;;5.35;3.67;;;;;;;-145.06;100.00;60892.56;5976685;23;20308;-93
2022/09/15 08:21:27;;;;;;;5.13;2.95;;;;;;;-145.06;100.00;60892.56;5976395;23;20005;-91
2022/09/15 08:24:08;;;;;;;4.28;3.17;;;;;;;-145.06;100.00;60892.56;5977261;23;20282;-93
2022/09/15 08:26:48;;;;;;;3.50;2.78;;;;;;;-145.06;100.00;60892.56;5976629;23;20013;-90
2022/09/15 08:29:28;;;;;;;5.18;3.20;;;;;;;-145.06;100.00;60892.56;5976378;23;20431;-93
2022/09/15 08:32:07;;;;;;;5.25;3.40;;;;;;;-145.06;100.00;60892.56;5976867;23;20009;-92
2022/09/15 08:34:46;;;;;;;2.70;2.45;;;;;;;-145.06;100.00;60892.56;5976384;23;20167;-92
2022/09/15 08:37:25;;;;;;;4.20;3.00;;;;;;;-145.06;100.00;60892.56;5976356;23;20005;-91
2022/09/15 08:40:05;;;;;;;3.90;2.97;;;;;;;-145.06;100.00;60892.56;5976536;23;20686;-91
2022/09/15 08:42:49;;;;;;;4.85;3.50;;;;;;;-145.06;100.00;60892.56;5976357;23;20313;-92
2022/09/15 08:45:40;;;;;;;4.82;3.47;;;;;;;-145.06;100.00;60892.56;5976314;23;20012;-92
2022/09/15 08:48:26;;;;;;;3.35;2.63;;;;;;;-145.06;100.00;60892.56;5976678;23;20008;-92
2022/09/15 08:51:12;;;;;;;4.47;3.15;;;;;;;-145.06;100.00;60892.56;5976186;23;20324;-91
2022/09/15 08:53:59;;;;;;;4.13;2.95;;;;;;;-145.06;100.00;60892.56;5976229;23;20005;-91
2022/09/15 08:56:41;;;;;;;4.63;2.80;;;;;;;-145.06;100.00;60892.56;5976193;23;20317;-91
2022/09/15 08:59:21;;;;;;;3.75;3.08;;;;;;;-145.06;100.00;60892.56;5976452;23;20008;-92
2022/09/15 09:02:12;;;;;;;3.75;2.75;;;;;;;-145.06;100.00;60892.56;5976260;23;20028;-92
2022/09/15 09:04:51;;;;;;;4.65;3.10;;;;;;;-145.06;100.00;60892.56;5975649;23;20435;-91
2022/09/15 09:07:36;;;;;;;5.20;3.00;;;;;;;-145.06;100.00;60892.56;5976405;23;20032;-93
2022/09/15 09:10:56;;;;;;;4.80;3.25;;;;;;;-145.06;100.00;60892.56;5976228;23;20536;-91
2022/09/15 09:13:55;;;;;;;4.40;3.13;;;;;;;-145.06;100.00;60892.56;5833247;23;20007;-90
2022/09/15 09:17:03;;;;;;;4.50;3.42;;;;;;;-145.06;100.00;60892.56;5975863;23;20005;-91
2022/09/15 09:19:54;;;;;;;4.53;2.63;;;;;;;-145.06;100.00;60892.56;5963546;23;20519;-93
2022/09/15 09:22:37;;;;;;;5.65;3.33;;;;;;;-145.06;100.00;60892.56;5975794;23;20008;-91
2022/09/15 09:25:18;;;;;;;5.80;3.90;;;;;;;-145.06;100.00;60892.56;5975574;23;20005;-91
2022/09/15 09:28:00;;;;;;;5.13;3.58;;;;;;;-145.06;100.00;60892.56;5976172;23;20001;-91
2022/09/15 09:30:39;;;;;;;4.90;3.58;;;;;;;-145.06;100.00;60892.56;5975108;23;20012;-91
2022/09/15 09:33:42;;;;;;;3.47;2.92;;;;;;;-145.06;100.00;60892.56;5976813;23;20009;-93
2022/09/15 09:36:21;;;;;;;4.55;2.80;;;;;;;-145.06;100.00;60892.56;5975800;23;20439;-92
2022/09/15 09:39:02;;;;;;;6.43;2.95;;;;;;;-145.06;100.00;60892.56;5975474;23;20004;-91
2022/09/15 09:41:42;;;;;;;5.15;3.60;;;;;;;-145.06;100.00;60892.56;5976102;23;20008;-91
2022/09/15 09:44:30;;;;;;;4.32;2.80;;;;;;;-145.06;100.00;60892.56;5975772;23;19997;-92
2022/09/15 09:47:11;;;;;;;4.57;2.97;;;;;;;-145.06;100.00;60892.56;5975473;23;20000;-92
2022/09/15 09:49:50;;;;;;;4.10;3.03;;;;;;;-145.06;100.00;60892.56;5975914;23;20317;-92
2022/09/15 09:52:37;;;;;;;2.80;2.25;;;;;;;-145.06;100.00;60892.56;5976176;23;20004;-91
2022/09/15 09:55:25;;;;;;;3.00;2.20;;;;;;;-145.06;100.00;60892.56;5975629;23;20008;-91
2022/09/15 09:58:17;;;;;;;4.45;2.50;;;;;;;-145.06;100.00;60892.56;5975439;23;20439;-91
2022/09/15 10:01:11;;;;;;;2.50;2.10;;;;;;;-145.06;100.00;60892.56;5975322;23;20004;-92
2022/09/15 10:04:15;;;;;;;3.42;2.05;;;;;;;-145.06;100.00;60892.56;5975736;23;20005;-92
2022/09/15 10:06:55;;;;;;;2.83;1.90;;;;;;;-145.06;100.00;60892.56;5975240;23;20004;-91
2022/09/15 10:09:36;;;;;;;2.13;1.77;;;;;;;-145.06;100.00;60892.56;5975724;23;20000;-92
2022/09/15 10:12:22;;;;;;;2.05;1.55;;;;;;;-145.06;100.00;60892.56;5975878;23;20038;-92
2022/09/15 10:15:05;;;;;;;2.53;1.52;;;;;;;-145.06;100.00;60892.56;5975097;23;20435;-93
2022/09/15 10:17:46;;;;;;;2.45;1.77;;;;;;;-145.06;100.00;60892.56;5975944;23;20008;-92
2022/09/15 10:20:48;;;;;;;1.95;1.42;;;;;;;-145.06;100.00;60892.56;5975653;23;20009;-92
2022/09/15 10:23:32;;;;;;;2.75;1.30;;;;;;;-145.06;100.00;60892.56;5975842;23;20008;-92
2022/09/15 10:26:33;;;;;;;1.92;1.52;;;;;;;-145.06;100.00;60892.56;5975681;23;20199;-92
2022/09/15 10:29:15;;;;;;;2.85;1.90;;;;;;;-145.06;100.00;60892.56;5975376;23;20013;-91
2022/09/15 10:31:54;;;;;;;2.50;1.50;;;;;;;-145.06;100.00;60892.56;5975146;23;20067;-92
2022/09/15 10:34:35;;;;;;;2.05;1.48;;;;;;;-145.06;100.00;60892.56;5974947;23;20008;-92
2022/09/15 10:37:28;;;;;;;2.10;1.30;;;;;;;-145.06;100.00;60892.56;5975401;23;20004;-92
2022/09/15 10:40:30;;;;;;;1.35;1.17;;;;;;;-145.06;100.00;60892.56;5976584;23;20024;-92
2022/09/15 10:43:35;;;;;;;1.58;1.10;;;;;;;-145.06;100.00;60892.56;5960642;23;20013;-90
2022/09/15 10:46:22;;;;;;;1.55;0.98;;;;;;;-145.06;100.00;60892.56;5947160;23;20001;-91
2022/09/15 10:49:04;;;;;;;1.60;1.02;;;;;;;-145.06;100.00;60892.56;5946213;23;20008;-93
2022/09/15 10:52:07;;;;;;;2.33;1.05;;;;;;;-145.06;100.00;60892.56;5946638;23;20072;-91
2022/09/15 10:55:17;;;;;;;1.40;1.00;;;;;;;-145.06;100.00;60892.56;5946006;23;20005;-91
2022/09/15 10:58:24;;;;;;;3.55;1.40;;;;;;;-145.06;100.00;60892.56;5946970;23;20013;-90
2022/09/15 11:01:06;;;;;;;1.25;1.10;;;;;;;-145.06;100.00;60892.56;5947012;23;20559;-91
2022/09/15 11:03:45;;;;;;;1.23;1.13;;;;;;;-145.06;100.00;60892.56;5946604;23;20424;-92
2022/09/15 11:06:30;;;;;;;1.77;1.38;;;;;;;-145.06;100.00;60892.56;5946917;23;20009;-91
2022/09/15 11:09:16;;;;;;;1.45;1.10;;;;;;;-145.06;100.00;60892.56;5947215;23;20005;-93
2022/09/15 11:12:01;;;;;;;1.52;1.40;;;;;;;-145.06;100.00;60892.56;5947201;23;20448;-93
2022/09/15 11:15:19;;;;;;;1.15;1.00;;;;;;;-145.06;100.00;60892.56;5946921;23;20002;-91
2022/09/15 11:18:01;;;;;;;1.08;0.98;;;;;;;-145.06;100.00;60892.56;5946298;23;20005;-91
2022/09/15 11:20:57;;;;;;;1.73;1.50;;;;;;;-145.06;100.00;60892.56;5946152;23;20072;-91
2022/09/15 11:24:05;;;;;;;1.88;1.20;;;;;;;-145.06;100.00;60892.56;5946866;23;20005;-90
2022/09/15 11:26:50;;;;;;;1.38;1.00;;;;;;;-145.06;100.00;60892.56;5926546;23;20005;-91
2022/09/15 11:29:59;;;;;;;1.83;1.15;;;;;;;-145.06;100.00;60892.56;5946657;23;20360;-91
2022/09/15 11:32:45;;;;;;;1.45;0.98;;;;;;;-145.06;100.00;60892.56;5946056;23;19998;-91
2022/09/15 11:35:55;;;;;;;1.05;0.85;;;;;;;-145.06;100.00;60892.56;5946858;23;20005;-91
2022/09/15 11:38:52;;;;;;;1.75;1.25;;;;;;;-145.06;100.00;60892.56;5946126;23;20301;-91
2022/09/15 11:41:39;;;;;;;2.65;1.33;;;;;;;-145.06;100.00;60892.56;5946178;23;20432;-92
2022/09/15 11:44:26;;;;;;;2.08;1.00;;;;;;;-145.06;100.00;60892.56;5946697;23;20029;-94
2022/09/15 11:47:15;;;;;;;0.90;0.75;;;;;;;-145.06;100.00;60892.56;5947134;23;20273;-92
2022/09/15 11:49:57;;;;;;;1.25;1.00;;;;;;;-145.06;100.00;60892.56;5946849;23;20005;-92
2022/09/15 11:52:58;;;;;;;1.38;0.88;;;;;;;-145.06;100.00;60892.56;5947009;23;20005;-91
2022/09/15 11:56:20;;;;;;;0.95;0.70;;;;;;;-145.06;100.00;60892.56;5948159;23;20013;-91
2022/09/15 11:59:38;;;;;;;0.80;0.60;;;;;;;-145.06;100.00;60892.56;5948215;23;20312;-92
2022/09/15 12:02:55;;;;;;;1.15;0.77;;;;;;;-145.06;100.00;60892.56;5949616;23;20001;-92
2022/09/15 12:06:18;;;;;;;;;;;;;;;;;;;;;
2022/09/15 12:09:00;;;;;;;0.80;0.55;;;;;;;-145.06;100.00;60892.56;5980270;23;20076;-93
2022/09/15 12:11:46;;;;;;;0.63;0.63;;;;;;;-145.06;100.00;60892.56;5947133;23;20009;-91
2022/09/15 12:14:35;;;;;;;1.25;0.80;;;;;;;-145.06;100.00;60892.56;5948445;23;20428;-92
2022/09/15 12:17:52;;;;;;;0.90;0.60;;;;;;;-145.06;100.00;60892.56;5949042;23;20088;-92
2022/09/15 12:20:41;;;;;;;1.52;0.68;;;;;;;-145.06;100.00;60892.56;5949602;23;20443;-93
2022/09/15 12:23:40;;;;;;;0.47;0.40;;;;;;;-145.06;100.00;60892.56;5949556;23;20110;-92
2022/09/15 12:26:22;;;;;;;0.82;0.60;;;;;;;-145.06;100.00;60892.56;5948962;23;20005;-92
2022/09/15 12:29:32;;;;;;;0.70;0.68;;;;;;;-145.06;100.00;60892.56;5948667;23;20008;-92
2022/09/15 12:32:25;;;;;;;;;;;;;;;-145.06;100.00;60892.56;5948661;23;20001;-91
2022/09/15 12:35:16;;;;;;;0.40;0.40;;;;;;;-145.06;100.00;60892.56;5948543;23;19931;-93
2022/09/15 12:37:58;;;;;;;1.42;0.80;;;;;;;-145.06;100.00;60892.56;5948430;23;20029;-92